x

Grays Reef - 40 Nm Southeast Of Savannah, Ga (41008) Wave Buoy

4:50pm - Sat 25th Feb 2017 All times are EST. -5 hours from GMT.

  • Sig Wave height 3.6ft
  • Swell Direction
  • Peak Period 10s
  • Average Period 6s
  • Wind
    9mph, 11mph gusts
  • Sea Temp 63°f
  • Air Temp 67°f
  • Sea Pressure 1009mb
  • Grays Reef - 40 Nm Southeast Of Savannah, Ga
  • Grays Reef - 40 Nm Southeast Of Savannah, Ga

More Historic Weather Station data

Upgrade to MSW Pro to gain access to the past 30 days of data for over 8000 Wavebouys and Weather Stations around the globe.

Join Pro

Comparision Forecast

View Surf forecast
   
Sat 02/25 4:50pm 3.5ft 10s 6s 9 11 mph 1009mb 63f 67f
3:50pm 3.5ft 10s 6s 9 11 mph 1009.1mb 63f 67f
2:50pm 3.5ft 10s 6s 13 16 mph 1009.2mb 63f 66f
1:50pm 3.5ft 11s 6s 16 18 mph 1009.1mb 63f 65f
12:50pm 3.5ft 10s 7s 11 13 mph 1009.8mb 63f 64f
11:50am 3.5ft 11s 7s 13
mph
1010.5mb 63f 64f
10:50am 3.5ft 11s 7s 11 13 mph 1010.8mb 62f 64f
9:50am 3.5ft 11s 7s 11
mph
1011mb 62f 63f
8:50am 3.5ft 11s 7s 11 13 mph 1010.9mb 62f 63f
7:50am 4ft 11s 7s 9 11 mph 1010.6mb 62f 62f
6:50am 5ft 11s 7s 9 11 mph 1010.2mb 62f 63f
5:50am 4.5ft 11s 7s 9 11 mph 1009.6mb 62f 62f
4:50am 5ft 11s 7s 7 9 mph 1008.5mb 62f 63f
3:50am 5ft 11s 7s 4 7 mph 1008.7mb 62f 63f
2:50am 4.5ft 9s 7s 9
mph
1008.9mb 62f 64f
1:50am 4.5ft 9s 7s 4
mph
1009.8mb 62f 63f
12:50am 4.5ft 11s 7s 2
mph
1010.3mb 62f 63f
Fri 02/24 11:50pm 4.5ft 11s 7s 4
mph
1010.8mb 62f 64f
10:50pm 4.5ft 10s 7s 4 7 mph 1010.9mb 62f 64f
9:50pm 4.5ft 11s 7s 4 7 mph 1010.6mb 62f 64f
8:50pm 5ft 11s 7s 4 7 mph 1010.7mb 62f 64f
7:50pm 5ft 10s 7s 4 7 mph 1010.6mb 62f 63f
6:50pm 5ft 11s 7s 4
mph
1010.5mb 63f 63f
5:50pm 5ft 10s 7s 7 9 mph 1010.2mb 63f 64f
4:50pm 6ft 11s 7s 9
mph
1009.9mb 63f 64f
3:50pm 5ft 11s 6s 9
mph
1009.9mb 63f 64f
2:50pm 5.5ft 10s 6s 9 11 mph 1010mb 63f 64f
1:50pm 5ft 8s 6s 11
mph
1009.9mb 63f 64f
12:50pm 5ft 11s 7s 11 13 mph 1010.8mb 63f 63f
11:50am 5ft 11s 6s 11 16 mph 1011.1mb 62f 63f
10:50am 5ft 11s 7s 13
mph
1011.8mb 62f 63f
9:50am 4.5ft 11s 6s 11 13 mph 1011.5mb 62f 63f
8:50am 5ft 11s 6s 11 16 mph 1010.8mb 62f 63f
7:50am 5ft 10s 6s 13 16 mph 1010mb 62f 63f
6:50am 6ft 11s 6s 13 16 mph 1009.7mb 62f 63f
5:50am 6ft 10s 6s 13 16 mph 1009.1mb 62f 63f
4:50am 6ft 10s 6s 16 18 mph 1009mb 62f 63f
3:50am 6.5ft 10s 6s 16 18 mph 1009.1mb 62f 63f
2:50am 6ft 9s 6s 13 16 mph 1009.4mb 62f 63f
1:50am 6.5ft 10s 6s 11 13 mph 1009.5mb 62f 63f
12:50am 6ft 10s 6s 16 18 mph 1009.3mb 62f 64f
Thu 02/23 11:50pm 5.5ft 10s 6s 16 20 mph 1009.3mb 62f 64f
10:50pm 6ft 10s 6s 16 18 mph 1009.6mb 62f 64f
9:50pm 6.5ft 10s 7s 13 16 mph 1009.4mb 62f 64f
8:50pm 6ft 10s 6s 16 20 mph 1009.1mb 62f 64f
7:50pm 6ft 10s 6s 16 20 mph 1008.6mb 62f 64f
6:50pm 7ft 10s 6s 16 20 mph 1008.3mb 62f 64f
5:50pm 7ft 8s 6s 16 18 mph 1007.9mb 63f 65f
4:50pm 7ft 9s 6s 16 18 mph 1007.5mb 63f 64f
3:50pm 7ft 9s 6s 18 20 mph 1007.1mb 63f 64f
2:50pm 7ft 9s 6s 20 22 mph 1007.3mb 63f 64f
1:50pm 7ft 9s 6s 18 22 mph 1007.6mb 63f 64f
12:50pm 7ft 8s 6s 20 22 mph 1008.3mb 62f 64f
11:50am 6.5ft 9s 6s 20 22 mph 1008.9mb 62f 64f
10:50am 6.5ft 8s 6s 22 27 mph 1008.9mb 63f 63f
9:50am 6.5ft 9s 6s 22 27 mph 1008.8mb 63f 64f
8:50am 6ft 8s 6s 20 22 mph 1008.3mb 63f 64f
7:50am 6ft 9s 6s 18 20 mph 1008mb 63f 64f
6:50am 6ft 9s 6s 20 22 mph 1007.5mb 63f 63f
5:50am 6ft 8s 6s 13 16 mph 1007.1mb 63f 64f
4:50am 6.5ft 8s 6s 11 13 mph 1006.6mb 63f 64f
3:50am 6.5ft 8s 6s 11 13 mph 1006.4mb 63f 65f
2:50am 6.5ft 8s 6s 11 13 mph 1007mb 63f 64f
1:50am 6.5ft 7s 6s 9
mph
1007.8mb 62f 65f
12:50am 6ft 8s 6s 9
mph
1008.3mb 62f 65f
Wed 02/22 11:50pm 6ft 7s 6s 16 18 mph 1008.3mb 62f 67f
10:50pm 6ft 8s 6s 9 11 mph 1009mb 62f 64f
9:50pm 6ft 8s 6s 13 20 mph 1009.4mb 62f 65f
8:50pm 6.5ft 8s 6s 13 16 mph 1009.6mb 63f 65f
7:50pm 6ft 8s 6s 20 27 mph 1009mb 63f 66f
6:50pm 5.5ft 8s 6s 13 18 mph 1008.7mb 63f 66f
5:50pm 6ft 7s 6s 9 11 mph 1008.6mb 63f 67f
4:50pm 6ft 8s 6s 13 16 mph 1008.4mb 63f 65f
3:50pm 6ft 7s 5s 18 20 mph 1008.4mb 63f 66f
2:50pm 6ft 7s 6s 20 25 mph 1008.7mb 63f 67f
1:50pm 5ft 7s 5s 11 13 mph 1009mb 62f 67f
12:50pm 5.5ft 7s 5s 11 13 mph 1009.8mb 62f 66f
11:50am 5ft 6s 5s 11 13 mph 1010.5mb 62f 66f
10:50am 4.5ft 6s 5s 18 20 mph 1011.2mb 62f 63f
9:50am 4.5ft 7s 5s 18 20 mph 1011.6mb 62f 64f
8:50am 4ft 7s 5s 11 13 mph 1011.3mb 62f 66f
7:50am 4.5ft 7s 5s 9 11 mph 1011.3mb 62f 66f
5:50am 4ft 6s 5s 9
mph
1011.4mb 62f 65f
4:50am 4.5ft 6s 5s 9 11 mph 1011.6mb 62f 65f
3:50am 4.5ft 6s 5s 7 9 mph 1012mb 63f 64f
2:50am 4.5ft 6s 5s 7
mph
1012.5mb 63f 65f
1:50am 4.5ft 6s 5s 4 7 mph 1013.2mb 63f 65f
12:50am 4ft 6s 5s 9
mph
1013.7mb 62f 65f
Tue 02/21 11:50pm 4ft 6s 5s 7
mph
1014.3mb 63f 65f